sensor_id;sensor_type;location;lat;lon;timestamp;pressure;altitude;pressure_sealevel;temperature
15062;BMP180;7630;50.306;8.566;2023-08-01T00:00:53;96591.00;;;19.00
15062;BMP180;7630;50.306;8.566;2023-08-01T00:04:54;96589.00;;;18.50
15062;BMP180;7630;50.306;8.566;2023-08-01T00:08:55;96584.00;;;19.00
15062;BMP180;7630;50.306;8.566;2023-08-01T00:12:56;96569.00;;;18.60
15062;BMP180;7630;50.306;8.566;2023-08-01T00:16:57;96560.00;;;18.60
15062;BMP180;7630;50.306;8.566;2023-08-01T00:20:59;96542.00;;;18.50
15062;BMP180;7630;50.306;8.566;2023-08-01T00:25:00;96520.00;;;18.50
15062;BMP180;7630;50.306;8.566;2023-08-01T00:29:01;96421.00;;;17.90
15062;BMP180;7630;50.306;8.566;2023-08-01T00:33:02;96508.00;;;17.40
15062;BMP180;7630;50.306;8.566;2023-08-01T00:37:04;96499.00;;;17.50
15062;BMP180;7630;50.306;8.566;2023-08-01T00:41:05;96495.00;;;17.70
15062;BMP180;7630;50.306;8.566;2023-08-01T00:45:08;96469.00;;;18.00
15062;BMP180;7630;50.306;8.566;2023-08-01T00:49:09;96448.00;;;17.80
15062;BMP180;7630;50.306;8.566;2023-08-01T00:53:11;96447.00;;;17.30
15062;BMP180;7630;50.306;8.566;2023-08-01T00:57:13;96449.00;;;17.80
15062;BMP180;7630;50.306;8.566;2023-08-01T01:01:14;96446.00;;;18.20
15062;BMP180;7630;50.306;8.566;2023-08-01T01:05:15;96446.00;;;17.70
15062;BMP180;7630;50.306;8.566;2023-08-01T01:09:19;96440.00;;;18.20
15062;BMP180;7630;50.306;8.566;2023-08-01T01:13:21;96437.00;;;18.80
15062;BMP180;7630;50.306;8.566;2023-08-01T01:17:22;96417.00;;;18.10
15062;BMP180;7630;50.306;8.566;2023-08-01T01:21:23;96407.00;;;17.50
15062;BMP180;7630;50.306;8.566;2023-08-01T01:25:25;96390.00;;;18.50
15062;BMP180;7630;50.306;8.566;2023-08-01T01:29:27;96396.00;;;18.10
15062;BMP180;7630;50.306;8.566;2023-08-01T01:33:28;96395.00;;;18.20
15062;BMP180;7630;50.306;8.566;2023-08-01T01:37:29;96410.00;;;18.10
15062;BMP180;7630;50.306;8.566;2023-08-01T01:41:31;96377.00;;;18.10
15062;BMP180;7630;50.306;8.566;2023-08-01T01:45:32;96370.00;;;18.70
15062;BMP180;7630;50.306;8.566;2023-08-01T01:49:33;96359.00;;;17.90
15062;BMP180;7630;50.306;8.566;2023-08-01T01:53:34;96351.00;;;17.90
15062;BMP180;7630;50.306;8.566;2023-08-01T01:57:35;96354.00;;;17.80
15062;BMP180;7630;50.306;8.566;2023-08-01T02:01:37;96347.00;;;18.30
15062;BMP180;7630;50.306;8.566;2023-08-01T02:05:42;96349.00;;;18.20
15062;BMP180;7630;50.306;8.566;2023-08-01T02:09:43;96337.00;;;17.90
15062;BMP180;7630;50.306;8.566;2023-08-01T02:13:44;96326.00;;;17.90
15062;BMP180;7630;50.306;8.566;2023-08-01T02:17:45;96309.00;;;17.90
15062;BMP180;7630;50.306;8.566;2023-08-01T02:21:46;96297.00;;;18.40
15062;BMP180;7630;50.306;8.566;2023-08-01T02:25:48;96288.00;;;18.30
15062;BMP180;7630;50.306;8.566;2023-08-01T02:29:49;96282.00;;;18.20
15062;BMP180;7630;50.306;8.566;2023-08-01T02:33:51;96270.00;;;18.30
15062;BMP180;7630;50.306;8.566;2023-08-01T02:37:52;96278.00;;;18.30
15062;BMP180;7630;50.306;8.566;2023-08-01T02:41:53;96266.00;;;18.30
15062;BMP180;7630;50.306;8.566;2023-08-01T02:45:55;96269.00;;;18.90
15062;BMP180;7630;50.306;8.566;2023-08-01T02:49:56;96259.00;;;18.40
15062;BMP180;7630;50.306;8.566;2023-08-01T02:53:57;96266.00;;;17.90
15062;BMP180;7630;50.306;8.566;2023-08-01T02:57:58;96264.00;;;18.30
15062;BMP180;7630;50.306;8.566;2023-08-01T03:01:59;96271.00;;;18.50
15062;BMP180;7630;50.306;8.566;2023-08-01T03:06:00;96272.00;;;17.60
15062;BMP180;7630;50.306;8.566;2023-08-01T03:10:02;96274.00;;;18.30
15062;BMP180;7630;50.306;8.566;2023-08-01T03:14:03;96265.00;;;17.80
15062;BMP180;7630;50.306;8.566;2023-08-01T03:18:07;96266.00;;;17.90
15062;BMP180;7630;50.306;8.566;2023-08-01T03:22:10;96248.00;;;18.10
15062;BMP180;7630;50.306;8.566;2023-08-01T03:26:11;96240.00;;;18.00
15062;BMP180;7630;50.306;8.566;2023-08-01T03:30:12;96242.00;;;17.70
15062;BMP180;7630;50.306;8.566;2023-08-01T03:34:14;96216.00;;;17.60
15062;BMP180;7630;50.306;8.566;2023-08-01T03:38:15;96217.00;;;17.70
15062;BMP180;7630;50.306;8.566;2023-08-01T03:42:16;96177.00;;;17.80
15062;BMP180;7630;50.306;8.566;2023-08-01T03:46:17;96186.00;;;17.70
15062;BMP180;7630;50.306;8.566;2023-08-01T03:50:18;96192.00;;;17.90
15062;BMP180;7630;50.306;8.566;2023-08-01T03:54:20;96185.00;;;18.20
15062;BMP180;7630;50.306;8.566;2023-08-01T03:58:21;96195.00;;;18.50
15062;BMP180;7630;50.306;8.566;2023-08-01T04:02:22;96215.00;;;18.30
15062;BMP180;7630;50.306;8.566;2023-08-01T04:06:23;96195.00;;;18.00
15062;BMP180;7630;50.306;8.566;2023-08-01T04:10:24;96218.00;;;18.10
15062;BMP180;7630;50.306;8.566;2023-08-01T04:14:25;96232.00;;;18.20
15062;BMP180;7630;50.306;8.566;2023-08-01T04:18:26;96239.00;;;18.00
15062;BMP180;7630;50.306;8.566;2023-08-01T04:22:27;96220.00;;;18.00
15062;BMP180;7630;50.306;8.566;2023-08-01T04:26:28;96219.00;;;18.20
15062;BMP180;7630;50.306;8.566;2023-08-01T04:30:29;96227.00;;;18.10
15062;BMP180;7630;50.306;8.566;2023-08-01T04:34:31;96233.00;;;18.40
15062;BMP180;7630;50.306;8.566;2023-08-01T04:38:32;96210.00;;;18.30
15062;BMP180;7630;50.306;8.566;2023-08-01T04:42:36;96200.00;;;18.30
15062;BMP180;7630;50.306;8.566;2023-08-01T04:46:37;96201.00;;;18.20
15062;BMP180;7630;50.306;8.566;2023-08-01T04:50:38;96211.00;;;18.20
15062;BMP180;7630;50.306;8.566;2023-08-01T04:54:39;96211.00;;;18.80
15062;BMP180;7630;50.306;8.566;2023-08-01T04:58:40;96215.00;;;18.80
15062;BMP180;7630;50.306;8.566;2023-08-01T05:02:41;96181.00;;;19.00
15062;BMP180;7630;50.306;8.566;2023-08-01T05:06:43;96186.00;;;19.40
15062;BMP180;7630;50.306;8.566;2023-08-01T05:10:44;96163.00;;;18.50
15062;BMP180;7630;50.306;8.566;2023-08-01T05:14:45;96147.00;;;18.10
15062;BMP180;7630;50.306;8.566;2023-08-01T05:18:46;96163.00;;;18.30
15062;BMP180;7630;50.306;8.566;2023-08-01T05:22:47;96178.00;;;18.40
15062;BMP180;7630;50.306;8.566;2023-08-01T05:26:48;96189.00;;;18.60
15062;BMP180;7630;50.306;8.566;2023-08-01T05:30:49;96202.00;;;18.50
15062;BMP180;7630;50.306;8.566;2023-08-01T05:34:50;96227.00;;;19.20
15062;BMP180;7630;50.306;8.566;2023-08-01T05:38:52;96253.00;;;18.30
15062;BMP180;7630;50.306;8.566;2023-08-01T05:42:53;96260.00;;;17.60
15062;BMP180;7630;50.306;8.566;2023-08-01T05:46:54;96254.00;;;17.40
15062;BMP180;7630;50.306;8.566;2023-08-01T05:50:55;96277.00;;;17.20
15062;BMP180;7630;50.306;8.566;2023-08-01T05:54:56;96278.00;;;17.60
15062;BMP180;7630;50.306;8.566;2023-08-01T05:58:57;96281.00;;;17.80
15062;BMP180;7630;50.306;8.566;2023-08-01T06:02:59;96278.00;;;15.80
15062;BMP180;7630;50.306;8.566;2023-08-01T06:07:01;96298.00;;;16.00
15062;BMP180;7630;50.306;8.566;2023-08-01T06:11:02;96299.00;;;16.50
15062;BMP180;7630;50.306;8.566;2023-08-01T06:15:05;96303.00;;;17.10
15062;BMP180;7630;50.306;8.566;2023-08-01T06:19:06;96313.00;;;17.60
15062;BMP180;7630;50.306;8.566;2023-08-01T06:23:07;96312.00;;;17.00
15062;BMP180;7630;50.306;8.566;2023-08-01T06:27:08;96309.00;;;17.20
15062;BMP180;7630;50.306;8.566;2023-08-01T06:31:09;96324.00;;;17.30
15062;BMP180;7630;50.306;8.566;2023-08-01T06:35:11;96337.00;;;17.90
15062;BMP180;7630;50.306;8.566;2023-08-01T06:39:12;96336.00;;;17.60
15062;BMP180;7630;50.306;8.566;2023-08-01T06:43:13;96337.00;;;18.60
15062;BMP180;7630;50.306;8.566;2023-08-01T06:47:14;96352.00;;;17.60
15062;BMP180;7630;50.306;8.566;2023-08-01T06:51:15;96363.00;;;17.10
15062;BMP180;7630;50.306;8.566;2023-08-01T06:55:16;96371.00;;;18.10
15062;BMP180;7630;50.306;8.566;2023-08-01T06:59:17;96372.00;;;17.50
15062;BMP180;7630;50.306;8.566;2023-08-01T07:03:18;96378.00;;;17.80
15062;BMP180;7630;50.306;8.566;2023-08-01T07:07:20;96376.00;;;18.30
15062;BMP180;7630;50.306;8.566;2023-08-01T07:11:21;96377.00;;;18.70
15062;BMP180;7630;50.306;8.566;2023-08-01T07:15:22;96366.00;;;18.40
15062;BMP180;7630;50.306;8.566;2023-08-01T07:19:23;96358.00;;;18.10
15062;BMP180;7630;50.306;8.566;2023-08-01T07:23:24;96356.00;;;18.70
15062;BMP180;7630;50.306;8.566;2023-08-01T07:27:25;96359.00;;;18.20
15062;BMP180;7630;50.306;8.566;2023-08-01T07:31:26;96361.00;;;19.00
15062;BMP180;7630;50.306;8.566;2023-08-01T07:35:28;96370.00;;;18.40
15062;BMP180;7630;50.306;8.566;2023-08-01T07:39:29;96370.00;;;18.10
15062;BMP180;7630;50.306;8.566;2023-08-01T07:43:30;96375.00;;;18.00
15062;BMP180;7630;50.306;8.566;2023-08-01T07:47:31;96384.00;;;18.10
15062;BMP180;7630;50.306;8.566;2023-08-01T07:51:32;96383.00;;;17.60
15062;BMP180;7630;50.306;8.566;2023-08-01T07:55:34;96383.00;;;18.10
15062;BMP180;7630;50.306;8.566;2023-08-01T07:59:35;96383.00;;;18.20
15062;BMP180;7630;50.306;8.566;2023-08-01T08:03:37;96391.00;;;17.50
15062;BMP180;7630;50.306;8.566;2023-08-01T08:07:38;96391.00;;;19.60
15062;BMP180;7630;50.306;8.566;2023-08-01T08:11:39;96386.00;;;19.10
15062;BMP180;7630;50.306;8.566;2023-08-01T08:15:41;96392.00;;;19.00
15062;BMP180;7630;50.306;8.566;2023-08-01T08:19:42;96397.00;;;19.90
15062;BMP180;7630;50.306;8.566;2023-08-01T08:23:43;96391.00;;;20.00
15062;BMP180;7630;50.306;8.566;2023-08-01T08:27:45;96389.00;;;20.50
15062;BMP180;7630;50.306;8.566;2023-08-01T08:31:46;96399.00;;;18.60
15062;BMP180;7630;50.306;8.566;2023-08-01T08:35:48;96410.00;;;18.70
15062;BMP180;7630;50.306;8.566;2023-08-01T08:39:49;96410.00;;;19.00
15062;BMP180;7630;50.306;8.566;2023-08-01T08:43:53;96411.00;;;19.60
15062;BMP180;7630;50.306;8.566;2023-08-01T08:47:58;96425.00;;;19.10
15062;BMP180;7630;50.306;8.566;2023-08-01T08:52:00;96433.00;;;19.80
15062;BMP180;7630;50.306;8.566;2023-08-01T08:56:05;96428.00;;;21.30
15062;BMP180;7630;50.306;8.566;2023-08-01T09:00:08;96426.00;;;21.50
15062;BMP180;7630;50.306;8.566;2023-08-01T09:04:09;96421.00;;;20.30
15062;BMP180;7630;50.306;8.566;2023-08-01T09:08:15;96428.00;;;21.30
15062;BMP180;7630;50.306;8.566;2023-08-01T09:12:16;96435.00;;;22.20
15062;BMP180;7630;50.306;8.566;2023-08-01T09:16:17;96422.00;;;21.80
15062;BMP180;7630;50.306;8.566;2023-08-01T09:20:21;96436.00;;;22.20
15062;BMP180;7630;50.306;8.566;2023-08-01T09:24:22;96425.00;;;20.80
15062;BMP180;7630;50.306;8.566;2023-08-01T09:28:23;96425.00;;;22.40
15062;BMP180;7630;50.306;8.566;2023-08-01T09:32:25;96427.00;;;21.60
15062;BMP180;7630;50.306;8.566;2023-08-01T09:36:27;96438.00;;;22.90
15062;BMP180;7630;50.306;8.566;2023-08-01T09:40:40;96448.00;;;21.30
15062;BMP180;7630;50.306;8.566;2023-08-01T09:44:44;96446.00;;;21.30
15062;BMP180;7630;50.306;8.566;2023-08-01T09:48:44;96451.00;;;22.00
15062;BMP180;7630;50.306;8.566;2023-08-01T09:52:46;96446.00;;;22.00
15062;BMP180;7630;50.306;8.566;2023-08-01T09:56:51;96446.00;;;22.30
15062;BMP180;7630;50.306;8.566;2023-08-01T10:00:52;96478.00;;;20.90
15062;BMP180;7630;50.306;8.566;2023-08-01T10:04:54;96488.00;;;20.40
15062;BMP180;7630;50.306;8.566;2023-08-01T10:08:58;96480.00;;;19.30
15062;BMP180;7630;50.306;8.566;2023-08-01T10:13:00;96490.00;;;19.20
15062;BMP180;7630;50.306;8.566;2023-08-01T10:17:02;96495.00;;;19.40
15062;BMP180;7630;50.306;8.566;2023-08-01T10:21:06;96490.00;;;19.70
15062;BMP180;7630;50.306;8.566;2023-08-01T10:25:09;96476.00;;;21.00
15062;BMP180;7630;50.306;8.566;2023-08-01T10:29:11;96469.00;;;20.70
15062;BMP180;7630;50.306;8.566;2023-08-01T10:33:13;96486.00;;;21.40
15062;BMP180;7630;50.306;8.566;2023-08-01T10:37:14;96466.00;;;21.80
15062;BMP180;7630;50.306;8.566;2023-08-01T10:41:28;96466.00;;;20.20
15062;BMP180;7630;50.306;8.566;2023-08-01T10:45:30;96475.00;;;21.30
15062;BMP180;7630;50.306;8.566;2023-08-01T10:49:37;96477.00;;;21.80
15062;BMP180;7630;50.306;8.566;2023-08-01T10:53:39;96501.00;;;20.50
15062;BMP180;7630;50.306;8.566;2023-08-01T10:57:49;96512.00;;;20.10
15062;BMP180;7630;50.306;8.566;2023-08-01T11:01:57;96504.00;;;20.60
15062;BMP180;7630;50.306;8.566;2023-08-01T11:05:58;96505.00;;;20.10
15062;BMP180;7630;50.306;8.566;2023-08-01T11:14:11;96500.00;;;21.20
15062;BMP180;7630;50.306;8.566;2023-08-01T11:18:12;96503.00;;;21.90
15062;BMP180;7630;50.306;8.566;2023-08-01T11:22:13;96496.00;;;23.50
15062;BMP180;7630;50.306;8.566;2023-08-01T11:26:14;96501.00;;;22.00
15062;BMP180;7630;50.306;8.566;2023-08-01T11:30:16;96499.00;;;21.00
15062;BMP180;7630;50.306;8.566;2023-08-01T11:34:17;96495.00;;;21.10
15062;BMP180;7630;50.306;8.566;2023-08-01T11:38:18;96511.00;;;21.60
15062;BMP180;7630;50.306;8.566;2023-08-01T11:42:19;96516.00;;;22.90
15062;BMP180;7630;50.306;8.566;2023-08-01T11:46:21;96517.00;;;23.40
15062;BMP180;7630;50.306;8.566;2023-08-01T11:50:24;96518.00;;;23.20
15062;BMP180;7630;50.306;8.566;2023-08-01T11:54:26;96521.00;;;21.20
15062;BMP180;7630;50.306;8.566;2023-08-01T11:58:35;96527.00;;;21.70
15062;BMP180;7630;50.306;8.566;2023-08-01T12:02:37;96528.00;;;21.60
15062;BMP180;7630;50.306;8.566;2023-08-01T12:06:38;96528.00;;;22.60
15062;BMP180;7630;50.306;8.566;2023-08-01T12:10:43;96533.00;;;22.90
15062;BMP180;7630;50.306;8.566;2023-08-01T12:14:45;96539.00;;;22.60
15062;BMP180;7630;50.306;8.566;2023-08-01T12:18:46;96534.00;;;23.10
15062;BMP180;7630;50.306;8.566;2023-08-01T12:22:51;96531.00;;;25.50
15062;BMP180;7630;50.306;8.566;2023-08-01T12:26:52;96539.00;;;25.10
15062;BMP180;7630;50.306;8.566;2023-08-01T12:30:53;96539.00;;;24.30
15062;BMP180;7630;50.306;8.566;2023-08-01T12:34:54;96526.00;;;23.40
15062;BMP180;7630;50.306;8.566;2023-08-01T12:38:55;96535.00;;;23.50
15062;BMP180;7630;50.306;8.566;2023-08-01T12:42:56;96547.00;;;22.40
15062;BMP180;7630;50.306;8.566;2023-08-01T12:46:58;96539.00;;;22.90
15062;BMP180;7630;50.306;8.566;2023-08-01T12:50:59;96536.00;;;23.70
15062;BMP180;7630;50.306;8.566;2023-08-01T12:55:00;96531.00;;;23.40
15062;BMP180;7630;50.306;8.566;2023-08-01T12:59:01;96534.00;;;24.50
15062;BMP180;7630;50.306;8.566;2023-08-01T13:03:03;96455.00;;;24.70
15062;BMP180;7630;50.306;8.566;2023-08-01T13:07:05;96547.00;;;24.00
15062;BMP180;7630;50.306;8.566;2023-08-01T13:11:12;96533.00;;;24.30
15062;BMP180;7630;50.306;8.566;2023-08-01T13:15:13;96540.00;;;25.10
15062;BMP180;7630;50.306;8.566;2023-08-01T13:19:17;96536.00;;;24.00
15062;BMP180;7630;50.306;8.566;2023-08-01T13:23:19;96543.00;;;23.10
15062;BMP180;7630;50.306;8.566;2023-08-01T13:27:20;96548.00;;;23.70
15062;BMP180;7630;50.306;8.566;2023-08-01T13:31:21;96545.00;;;22.50
15062;BMP180;7630;50.306;8.566;2023-08-01T13:35:22;96568.00;;;22.00
15062;BMP180;7630;50.306;8.566;2023-08-01T13:39:24;96581.00;;;18.30
15062;BMP180;7630;50.306;8.566;2023-08-01T13:43:25;96610.00;;;18.00
15062;BMP180;7630;50.306;8.566;2023-08-01T13:47:26;96617.00;;;17.60
15062;BMP180;7630;50.306;8.566;2023-08-01T13:51:27;96610.00;;;18.40
15062;BMP180;7630;50.306;8.566;2023-08-01T13:55:31;96605.00;;;18.90
15062;BMP180;7630;50.306;8.566;2023-08-01T13:59:33;96608.00;;;20.60
15062;BMP180;7630;50.306;8.566;2023-08-01T14:03:36;96600.00;;;20.70
15062;BMP180;7630;50.306;8.566;2023-08-01T14:07:38;96596.00;;;21.70
15062;BMP180;7630;50.306;8.566;2023-08-01T14:11:41;96609.00;;;21.50
15062;BMP180;7630;50.306;8.566;2023-08-01T14:15:42;96610.00;;;22.30
15062;BMP180;7630;50.306;8.566;2023-08-01T14:19:43;96613.00;;;21.70
15062;BMP180;7630;50.306;8.566;2023-08-01T14:23:44;96620.00;;;22.60
15062;BMP180;7630;50.306;8.566;2023-08-01T14:27:45;96620.00;;;21.30
15062;BMP180;7630;50.306;8.566;2023-08-01T14:31:46;96621.00;;;21.20
15062;BMP180;7630;50.306;8.566;2023-08-01T14:35:47;96629.00;;;21.40
15062;BMP180;7630;50.306;8.566;2023-08-01T14:39:49;96615.00;;;21.20
15062;BMP180;7630;50.306;8.566;2023-08-01T14:43:51;96624.00;;;20.90
15062;BMP180;7630;50.306;8.566;2023-08-01T14:47:52;96635.00;;;20.80
15062;BMP180;7630;50.306;8.566;2023-08-01T14:51:53;96623.00;;;20.70
15062;BMP180;7630;50.306;8.566;2023-08-01T14:55:58;96636.00;;;20.80
15062;BMP180;7630;50.306;8.566;2023-08-01T15:00:04;96634.00;;;22.70
15062;BMP180;7630;50.306;8.566;2023-08-01T15:04:06;96615.00;;;22.10
15062;BMP180;7630;50.306;8.566;2023-08-01T15:08:07;96628.00;;;23.30
15062;BMP180;7630;50.306;8.566;2023-08-01T15:12:08;96627.00;;;23.10
15062;BMP180;7630;50.306;8.566;2023-08-01T15:16:10;96634.00;;;23.30
15062;BMP180;7630;50.306;8.566;2023-08-01T15:20:12;96619.00;;;22.30
15062;BMP180;7630;50.306;8.566;2023-08-01T15:24:15;96626.00;;;22.00
15062;BMP180;7630;50.306;8.566;2023-08-01T15:28:16;96633.00;;;21.00
15062;BMP180;7630;50.306;8.566;2023-08-01T15:32:17;96641.00;;;22.10
15062;BMP180;7630;50.306;8.566;2023-08-01T15:36:29;96650.00;;;22.10
15062;BMP180;7630;50.306;8.566;2023-08-01T15:40:23;96650.00;;;21.40
15062;BMP180;7630;50.306;8.566;2023-08-01T15:44:25;96658.00;;;20.50
15062;BMP180;7630;50.306;8.566;2023-08-01T15:48:26;96659.00;;;20.60
15062;BMP180;7630;50.306;8.566;2023-08-01T15:52:27;96662.00;;;21.20
15062;BMP180;7630;50.306;8.566;2023-08-01T15:56:28;96680.00;;;20.90
15062;BMP180;7630;50.306;8.566;2023-08-01T16:00:31;96685.00;;;20.60
15062;BMP180;7630;50.306;8.566;2023-08-01T16:04:33;96686.00;;;19.40
15062;BMP180;7630;50.306;8.566;2023-08-01T16:08:34;96688.00;;;18.80
15062;BMP180;7630;50.306;8.566;2023-08-01T16:12:35;96684.00;;;18.30
15062;BMP180;7630;50.306;8.566;2023-08-01T16:16:36;96699.00;;;18.50
15062;BMP180;7630;50.306;8.566;2023-08-01T16:20:38;96690.00;;;18.90
15062;BMP180;7630;50.306;8.566;2023-08-01T16:24:39;96666.00;;;19.60
15062;BMP180;7630;50.306;8.566;2023-08-01T16:28:40;96658.00;;;19.80
15062;BMP180;7630;50.306;8.566;2023-08-01T16:32:41;96671.00;;;21.10
15062;BMP180;7630;50.306;8.566;2023-08-01T16:36:43;96684.00;;;20.80
15062;BMP180;7630;50.306;8.566;2023-08-01T16:40:44;96683.00;;;19.70
15062;BMP180;7630;50.306;8.566;2023-08-01T16:44:45;96679.00;;;20.60
15062;BMP180;7630;50.306;8.566;2023-08-01T16:48:46;96671.00;;;19.90
15062;BMP180;7630;50.306;8.566;2023-08-01T16:52:48;96669.00;;;20.80
15062;BMP180;7630;50.306;8.566;2023-08-01T16:56:49;96674.00;;;20.90
15062;BMP180;7630;50.306;8.566;2023-08-01T17:00:50;96682.00;;;21.30
15062;BMP180;7630;50.306;8.566;2023-08-01T17:04:52;96679.00;;;21.50
15062;BMP180;7630;50.306;8.566;2023-08-01T17:08:53;96675.00;;;21.90
15062;BMP180;7630;50.306;8.566;2023-08-01T17:12:54;96682.00;;;21.00
15062;BMP180;7630;50.306;8.566;2023-08-01T17:16:56;96682.00;;;21.00
15062;BMP180;7630;50.306;8.566;2023-08-01T17:20:59;96691.00;;;20.30
15062;BMP180;7630;50.306;8.566;2023-08-01T17:25:02;96692.00;;;20.50
15062;BMP180;7630;50.306;8.566;2023-08-01T17:29:03;96691.00;;;19.90
15062;BMP180;7630;50.306;8.566;2023-08-01T17:33:05;96691.00;;;20.00
15062;BMP180;7630;50.306;8.566;2023-08-01T17:37:07;96700.00;;;21.00
15062;BMP180;7630;50.306;8.566;2023-08-01T17:41:26;96709.00;;;20.30
15062;BMP180;7630;50.306;8.566;2023-08-01T17:45:27;96709.00;;;21.00
15062;BMP180;7630;50.306;8.566;2023-08-01T17:49:28;96703.00;;;19.80
15062;BMP180;7630;50.306;8.566;2023-08-01T17:53:29;96715.00;;;20.90
15062;BMP180;7630;50.306;8.566;2023-08-01T17:57:31;96723.00;;;20.40
15062;BMP180;7630;50.306;8.566;2023-08-01T18:01:32;96725.00;;;21.00
15062;BMP180;7630;50.306;8.566;2023-08-01T18:05:35;96731.00;;;21.60
15062;BMP180;7630;50.306;8.566;2023-08-01T18:09:36;96739.00;;;21.70
15062;BMP180;7630;50.306;8.566;2023-08-01T18:13:41;96733.00;;;21.40
15062;BMP180;7630;50.306;8.566;2023-08-01T18:17:43;96730.00;;;21.90
15062;BMP180;7630;50.306;8.566;2023-08-01T18:21:44;96739.00;;;21.60
15062;BMP180;7630;50.306;8.566;2023-08-01T18:25:45;96734.00;;;21.50
15062;BMP180;7630;50.306;8.566;2023-08-01T18:29:47;96741.00;;;20.90
15062;BMP180;7630;50.306;8.566;2023-08-01T18:33:48;96742.00;;;20.40
15062;BMP180;7630;50.306;8.566;2023-08-01T18:37:49;96746.00;;;19.80
15062;BMP180;7630;50.306;8.566;2023-08-01T18:41:50;96755.00;;;19.00
15062;BMP180;7630;50.306;8.566;2023-08-01T18:45:54;96759.00;;;19.50
15062;BMP180;7630;50.306;8.566;2023-08-01T18:49:55;96756.00;;;19.50
15062;BMP180;7630;50.306;8.566;2023-08-01T18:53:56;96753.00;;;19.40
15062;BMP180;7630;50.306;8.566;2023-08-01T18:57:58;96771.00;;;19.30
15062;BMP180;7630;50.306;8.566;2023-08-01T19:02:00;96769.00;;;19.40
15062;BMP180;7630;50.306;8.566;2023-08-01T19:06:02;96780.00;;;19.20
15062;BMP180;7630;50.306;8.566;2023-08-01T19:10:03;96783.00;;;18.70
15062;BMP180;7630;50.306;8.566;2023-08-01T19:14:05;96781.00;;;18.10
15062;BMP180;7630;50.306;8.566;2023-08-01T19:18:06;96779.00;;;18.70
15062;BMP180;7630;50.306;8.566;2023-08-01T19:22:07;96782.00;;;18.40
15062;BMP180;7630;50.306;8.566;2023-08-01T19:26:09;96794.00;;;18.40
15062;BMP180;7630;50.306;8.566;2023-08-01T19:30:11;96797.00;;;18.20
15062;BMP180;7630;50.306;8.566;2023-08-01T19:34:13;96801.00;;;18.60
15062;BMP180;7630;50.306;8.566;2023-08-01T19:38:14;96811.00;;;18.40
15062;BMP180;7630;50.306;8.566;2023-08-01T19:42:15;96830.00;;;18.50
15062;BMP180;7630;50.306;8.566;2023-08-01T19:46:17;96814.00;;;18.50
15062;BMP180;7630;50.306;8.566;2023-08-01T19:50:18;96828.00;;;18.30
15062;BMP180;7630;50.306;8.566;2023-08-01T19:54:20;96818.00;;;17.70
15062;BMP180;7630;50.306;8.566;2023-08-01T19:58:21;96828.00;;;17.30
15062;BMP180;7630;50.306;8.566;2023-08-01T20:02:23;96831.00;;;17.30
15062;BMP180;7630;50.306;8.566;2023-08-01T20:06:25;96829.00;;;17.20
15062;BMP180;7630;50.306;8.566;2023-08-01T20:10:26;96834.00;;;17.00
15062;BMP180;7630;50.306;8.566;2023-08-01T20:14:27;96857.00;;;17.80
15062;BMP180;7630;50.306;8.566;2023-08-01T20:18:28;96847.00;;;17.50
15062;BMP180;7630;50.306;8.566;2023-08-01T20:22:30;96863.00;;;18.50
15062;BMP180;7630;50.306;8.566;2023-08-01T20:26:31;96866.00;;;18.20
15062;BMP180;7630;50.306;8.566;2023-08-01T20:30:32;96873.00;;;18.50
15062;BMP180;7630;50.306;8.566;2023-08-01T20:34:35;96877.00;;;17.90
15062;BMP180;7630;50.306;8.566;2023-08-01T20:38:37;96871.00;;;17.50
15062;BMP180;7630;50.306;8.566;2023-08-01T20:42:38;96866.00;;;17.70
15062;BMP180;7630;50.306;8.566;2023-08-01T20:46:39;96869.00;;;18.10
15062;BMP180;7630;50.306;8.566;2023-08-01T20:50:41;96867.00;;;18.80
15062;BMP180;7630;50.306;8.566;2023-08-01T20:54:42;96875.00;;;19.10
15062;BMP180;7630;50.306;8.566;2023-08-01T20:58:43;96875.00;;;18.80
15062;BMP180;7630;50.306;8.566;2023-08-01T21:02:49;96758.00;;;19.10
15062;BMP180;7630;50.306;8.566;2023-08-01T21:06:53;96865.00;;;19.20
15062;BMP180;7630;50.306;8.566;2023-08-01T21:10:54;96854.00;;;19.60
15062;BMP180;7630;50.306;8.566;2023-08-01T21:14:55;96848.00;;;19.70
15062;BMP180;7630;50.306;8.566;2023-08-01T21:18:56;96848.00;;;19.60
15062;BMP180;7630;50.306;8.566;2023-08-01T21:22:57;96841.00;;;19.80
15062;BMP180;7630;50.306;8.566;2023-08-01T21:26:59;96844.00;;;19.70
15062;BMP180;7630;50.306;8.566;2023-08-01T21:31:00;96861.00;;;19.70
15062;BMP180;7630;50.306;8.566;2023-08-01T21:35:02;96845.00;;;20.10
15062;BMP180;7630;50.306;8.566;2023-08-01T21:39:03;96760.00;;;20.00
15062;BMP180;7630;50.306;8.566;2023-08-01T21:43:04;96844.00;;;20.00
15062;BMP180;7630;50.306;8.566;2023-08-01T21:47:08;96845.00;;;20.00
15062;BMP180;7630;50.306;8.566;2023-08-01T21:51:09;96853.00;;;20.00
15062;BMP180;7630;50.306;8.566;2023-08-01T21:55:10;96842.00;;;20.00
15062;BMP180;7630;50.306;8.566;2023-08-01T21:59:12;96829.00;;;20.10
15062;BMP180;7630;50.306;8.566;2023-08-01T22:03:13;96826.00;;;19.90
15062;BMP180;7630;50.306;8.566;2023-08-01T22:07:14;96824.00;;;19.70
15062;BMP180;7630;50.306;8.566;2023-08-01T22:11:15;96818.00;;;19.20
15062;BMP180;7630;50.306;8.566;2023-08-01T22:15:18;96822.00;;;19.70
15062;BMP180;7630;50.306;8.566;2023-08-01T22:19:20;96827.00;;;19.70
15062;BMP180;7630;50.306;8.566;2023-08-01T22:23:22;96823.00;;;19.50
15062;BMP180;7630;50.306;8.566;2023-08-01T22:27:23;96811.00;;;19.70
15062;BMP180;7630;50.306;8.566;2023-08-01T22:31:24;96817.00;;;19.40
15062;BMP180;7630;50.306;8.566;2023-08-01T22:35:27;96826.00;;;19.00
15062;BMP180;7630;50.306;8.566;2023-08-01T22:39:28;96831.00;;;18.90
15062;BMP180;7630;50.306;8.566;2023-08-01T22:43:29;96835.00;;;18.40
15062;BMP180;7630;50.306;8.566;2023-08-01T22:47:30;96824.00;;;18.20
15062;BMP180;7630;50.306;8.566;2023-08-01T22:51:31;96833.00;;;18.60
15062;BMP180;7630;50.306;8.566;2023-08-01T22:55:32;96846.00;;;19.20
15062;BMP180;7630;50.306;8.566;2023-08-01T22:59:34;96842.00;;;18.80
15062;BMP180;7630;50.306;8.566;2023-08-01T23:03:36;96838.00;;;18.70
15062;BMP180;7630;50.306;8.566;2023-08-01T23:07:38;96840.00;;;18.50
15062;BMP180;7630;50.306;8.566;2023-08-01T23:11:39;96839.00;;;18.40
15062;BMP180;7630;50.306;8.566;2023-08-01T23:15:44;96841.00;;;19.00
15062;BMP180;7630;50.306;8.566;2023-08-01T23:19:45;96850.00;;;19.10
15062;BMP180;7630;50.306;8.566;2023-08-01T23:23:46;96788.00;;;18.10
15062;BMP180;7630;50.306;8.566;2023-08-01T23:27:47;96819.00;;;18.20
15062;BMP180;7630;50.306;8.566;2023-08-01T23:31:48;96821.00;;;18.30
15062;BMP180;7630;50.306;8.566;2023-08-01T23:35:50;96814.00;;;18.90